Disney Magic — C6PT7 — position and weather

sailwx.info

Track history (hours):
 
Tides and Currents Weather Stations Pressure Air Temp Water Temp Dewpoint Dewpoint Depression Visibility Wind Speed Wind Dir Waves Ship Positions

Disney Magic

Last reported at 2017-Jan-19 06:33 UTC. Time now 2017-Jan-19 21:26 UTC.
Position N 25°57' W 079°22'.

Type: Passenger vessel. MMSI: 308516000.

Date/timePositionNaut miles runAvg speedWind from/ knotsBaromVisibWave heightAir tempDewpointWater temp
2017-Jan-19 06:33N 25°57' W 079°22'2322.9
2017-Jan-19 05:33N 25°35' W 079°29'  
2017-Jan-16 01:18N 25°27' W 079°38'1014.0
2017-Jan-16 00:34N 25°34' W 079°46'1514.9
2017-Jan-15 23:34N 25°43' W 079°59'10 9.9
2017-Jan-15 22:34N 25°46' W 080°10'1 0.9
2017-Jan-15 21:33N 25°47' W 080°10'0 0.0
2017-Jan-15 20:33N 25°47' W 080°10'0 0.0
2017-Jan-15 19:33N 25°47' W 080°10'0 0.0
2017-Jan-15 18:33N 25°47' W 080°10'0 0.0
2017-Jan-15 17:33N 25°47' W 080°10'0 0.0
2017-Jan-15 16:33N 25°47' W 080°10'0 0.0
2017-Jan-15 15:33N 25°47' W 080°10'0 0.0
2017-Jan-15 14:33N 25°47' W 080°10'0 0.0
2017-Jan-15 13:33N 25°47' W 080°10'0 0.0
2017-Jan-15 12:24N 25°47' W 080°10'0 0.0
2017-Jan-15 11:33N 25°47' W 080°10'0 0.5
2017-Jan-15 10:33N 25°47' W 080°11'8 8.0
2017-Jan-15 09:33N 25°47' W 080°02'9 9.0
2017-Jan-15 08:33N 25°52' W 079°53'1313.2
2017-Jan-15 07:33N 25°58' W 079°41'1212.3
2017-Jan-15 06:33N 26°05' W 079°29'13 0.3
2017-Jan-13 06:10N 25°52' W 079°27'1320.7
2017-Jan-13 05:33N 25°41' W 079°34'2121.4
2017-Jan-13 04:33N 25°23' W 079°46'13 0.5
2017-Jan-12 01:13N 25°18' W 079°59'914.3
2017-Jan-12 00:34N 25°27' W 079°58'1414.2
2017-Jan-11 23:34N 25°41' W 079°59'10 9.8
2017-Jan-11 22:33N 25°46' W 080°09'2 1.7
2017-Jan-11 21:31N 25°47' W 080°10'0 0.0
2017-Jan-11 20:31N 25°47' W 080°10'0 0.0
2017-Jan-11 19:31N 25°47' W 080°10'0 0.0
2017-Jan-11 18:31N 25°47' W 080°10'0 0.0
2017-Jan-11 17:31N 25°47' W 080°10'0 0.0
2017-Jan-11 16:31N 25°47' W 080°10'0 0.0
2017-Jan-11 15:31N 25°47' W 080°10'0 0.0
2017-Jan-11 14:31N 25°47' W 080°10'0 0.0
2017-Jan-11 13:31N 25°47' W 080°10'0 0.0
2017-Jan-11 12:31N 25°47' W 080°10'0 0.0
2017-Jan-11 11:31N 25°47' W 080°10'0 0.1
2017-Jan-11 10:33N 25°47' W 080°10'8 8.1
2017-Jan-11 09:33N 25°47' W 080°01'9 9.3
2017-Jan-11 08:33N 25°52' W 079°53'1211.7
2017-Jan-11 07:33N 25°58' W 079°41'1211.9
2017-Jan-11 06:33N 26°04' W 079°30'  
Track history (hours):
 
Tides and Currents Weather Stations Pressure Air Temp Water Temp Dewpoint Dewpoint Depression Visibility Wind Speed Wind Dir Waves Ship Positions

Disney Magic

Last reported at 2017-Jan-19 06:33 UTC. Time now 2017-Jan-19 21:26 UTC.
Position N 25°57' W 079°22'.

Type: Passenger vessel. MMSI: 308516000.

Date/timePositionNaut miles runAvg speedWind from/ knotsBaromVisibWave heightAir tempDewpointWater temp
2017-Jan-19 06:33N 25°57' W 079°22'2322.9
2017-Jan-19 05:33N 25°35' W 079°29'  
2017-Jan-16 01:18N 25°27' W 079°38'1014.0
2017-Jan-16 00:34N 25°34' W 079°46'1514.9
2017-Jan-15 23:34N 25°43' W 079°59'10 9.9
2017-Jan-15 22:34N 25°46' W 080°10'1 0.9
2017-Jan-15 21:33N 25°47' W 080°10'0 0.0
2017-Jan-15 20:33N 25°47' W 080°10'0 0.0
2017-Jan-15 19:33N 25°47' W 080°10'0 0.0
2017-Jan-15 18:33N 25°47' W 080°10'0 0.0
2017-Jan-15 17:33N 25°47' W 080°10'0 0.0
2017-Jan-15 16:33N 25°47' W 080°10'0 0.0
2017-Jan-15 15:33N 25°47' W 080°10'0 0.0
2017-Jan-15 14:33N 25°47' W 080°10'0 0.0
2017-Jan-15 13:33N 25°47' W 080°10'0 0.0
2017-Jan-15 12:24N 25°47' W 080°10'0 0.0
2017-Jan-15 11:33N 25°47' W 080°10'0 0.5
2017-Jan-15 10:33N 25°47' W 080°11'8 8.0
2017-Jan-15 09:33N 25°47' W 080°02'9 9.0
2017-Jan-15 08:33N 25°52' W 079°53'1313.2
2017-Jan-15 07:33N 25°58' W 079°41'1212.3
2017-Jan-15 06:33N 26°05' W 079°29'13 0.3
2017-Jan-13 06:10N 25°52' W 079°27'1320.7
2017-Jan-13 05:33N 25°41' W 079°34'2121.4
2017-Jan-13 04:33N 25°23' W 079°46'13 0.5
2017-Jan-12 01:13N 25°18' W 079°59'914.3
2017-Jan-12 00:34N 25°27' W 079°58'1414.2
2017-Jan-11 23:34N 25°41' W 079°59'10 9.8
2017-Jan-11 22:33N 25°46' W 080°09'2 1.7
2017-Jan-11 21:31N 25°47' W 080°10'0 0.0
2017-Jan-11 20:31N 25°47' W 080°10'0 0.0
2017-Jan-11 19:31N 25°47' W 080°10'0 0.0
2017-Jan-11 18:31N 25°47' W 080°10'0 0.0
2017-Jan-11 17:31N 25°47' W 080°10'0 0.0
2017-Jan-11 16:31N 25°47' W 080°10'0 0.0
2017-Jan-11 15:31N 25°47' W 080°10'0 0.0
2017-Jan-11 14:31N 25°47' W 080°10'0 0.0
2017-Jan-11 13:31N 25°47' W 080°10'0 0.0
2017-Jan-11 12:31N 25°47' W 080°10'0 0.0
2017-Jan-11 11:31N 25°47' W 080°10'0 0.1
2017-Jan-11 10:33N 25°47' W 080°10'8 8.1
2017-Jan-11 09:33N 25°47' W 080°01'9 9.3
2017-Jan-11 08:33N 25°52' W 079°53'1211.7
2017-Jan-11 07:33N 25°58' W 079°41'1211.9
2017-Jan-11 06:33N 26°04' W 079°30'  

Dump ship's entire track history